Time;durP1;ratioP1;P1;durP2;ratioP2;P2;SDS_P1;SDS_P2;PMS_P1;PMS_P2;Temp;Humidity;BMP_temperature;BMP_pressure;BME280_temperature;BME280_humidity;BME280_pressure;Samples;Min_cycle;Max_cycle;Signal;HPM_P1;HPM_P2
2022/07/22 00:04:39;;;;;;;8.40;4.40;;;;;;;21.49;52.98;98730.39;219205;1276;25409;-70
2022/07/22 00:09:41;;;;;;;4.50;3.50;;;;;;;21.40;53.26;98731.80;219187;1277;24301;-70
2022/07/22 00:14:44;;;;;;;5.30;4.20;;;;;;;21.33;53.68;98736.34;219210;1277;25393;-69
2022/07/22 00:19:49;;;;;;;5.10;4.10;;;;;;;21.31;54.03;98734.89;218837;1276;24284;-68
2022/07/22 00:30:20;;;;;;;6.40;4.90;;;;;;;21.26;54.42;98731.55;219108;1276;24548;-69
2022/07/22 00:35:23;;;;;;;9.20;5.20;;;;;;;21.22;54.57;98739.80;219253;1276;24335;-70
2022/07/22 00:40:25;;;;;;;9.10;5.50;;;;;;;21.15;55.09;98746.41;219143;1276;24438;-71
2022/07/22 00:45:31;;;;;;;7.60;5.10;;;;;;;21.04;55.29;98748.02;219189;1280;24272;-70
2022/07/22 00:50:35;;;;;;;8.00;5.80;;;;;;;20.93;55.69;98739.48;219031;1276;22927;-72
2022/07/22 00:55:40;;;;;;;7.00;5.30;;;;;;;20.83;55.88;98740.81;218634;1276;567995;-70
2022/07/22 01:00:46;;;;;;;8.90;6.10;;;;;;;20.74;56.30;98741.80;219260;1277;22706;-70
2022/07/22 01:05:49;;;;;;;10.90;6.10;;;;;;;20.67;56.65;98746.30;219196;1276;24808;-70
2022/07/22 01:10:52;;;;;;;8.10;6.10;;;;;;;20.61;56.87;98746.23;219194;1276;22541;-70
2022/07/22 01:15:55;;;;;;;7.90;6.00;;;;;;;20.54;57.10;98748.95;219194;1276;22593;-69
2022/07/22 01:20:57;;;;;;;8.20;6.00;;;;;;;20.48;57.63;98748.30;219097;1276;22549;-71
2022/07/22 01:26:04;;;;;;;8.00;5.70;;;;;;;20.40;58.07;98744.54;219201;1276;22577;-70
2022/07/22 01:31:07;;;;;;;8.20;6.10;;;;;;;20.30;58.25;98741.30;219232;1276;22577;-70
2022/07/22 01:36:13;;;;;;;9.50;6.70;;;;;;;20.18;58.75;98742.48;219308;1276;24004;-69
2022/07/22 01:41:15;;;;;;;9.00;6.00;;;;;;;20.06;59.00;98746.33;219190;1276;22542;-70
2022/07/22 01:46:18;;;;;;;8.70;6.10;;;;;;;19.99;59.38;98744.06;219032;1276;22539;-69
2022/07/22 01:51:21;;;;;;;10.80;6.60;;;;;;;19.96;59.88;98750.21;219208;1281;26406;-70
2022/07/22 01:56:23;;;;;;;8.30;6.70;;;;;;;19.93;60.13;98749.61;219104;1276;22795;-69
2022/07/22 02:01:27;;;;;;;9.80;7.50;;;;;;;19.92;60.29;98758.74;219120;1276;24025;-69
2022/07/22 02:06:31;;;;;;;10.60;7.00;;;;;;;19.91;60.72;98761.12;219066;1276;23974;-71
2022/07/22 02:11:43;;;;;;;12.20;7.70;;;;;;;19.91;61.07;98771.16;219031;1278;25412;-69
2022/07/22 02:16:56;;;;;;;11.60;7.40;;;;;;;19.92;61.50;98788.52;219139;1277;23005;-70
2022/07/22 02:21:59;;;;;;;9.20;7.40;;;;;;;19.93;61.84;98818.66;219212;1277;22621;-69
2022/07/22 02:27:01;;;;;;;10.70;6.70;;;;;;;19.93;62.06;98821.14;219176;1276;25363;-70
2022/07/22 02:32:04;;;;;;;8.10;6.60;;;;;;;19.87;62.24;98809.19;219322;1277;22587;-71
2022/07/22 02:37:07;;;;;;;8.00;6.90;;;;;;;19.83;62.56;98802.63;219063;1277;24134;-69
2022/07/22 02:42:10;;;;;;;8.10;7.10;;;;;;;19.81;63.09;98803.59;218988;1276;22729;-70
2022/07/22 02:47:12;;;;;;;8.30;7.10;;;;;;;19.81;63.62;98842.81;219170;1276;22608;-69
2022/07/22 02:52:26;;;;;;;7.80;6.70;;;;;;;19.80;63.72;98854.80;219275;1276;25525;-69
2022/07/22 02:57:35;;;;;;;8.80;6.80;;;;;;;19.77;63.85;98860.30;219125;1276;23848;-69
2022/07/22 03:02:38;;;;;;;7.50;6.80;;;;;;;19.77;64.04;98857.97;219142;1277;23528;-70
2022/07/22 03:07:40;;;;;;;9.40;7.50;;;;;;;19.80;64.19;98855.66;219241;1278;25349;-69
2022/07/22 03:12:45;;;;;;;8.70;7.10;;;;;;;19.85;64.29;98865.42;219185;1277;25374;-69
2022/07/22 03:17:48;;;;;;;8.60;7.30;;;;;;;19.90;64.37;98863.09;219242;1277;25266;-70
2022/07/22 03:22:50;;;;;;;12.30;7.40;;;;;;;19.96;64.52;98868.73;219154;1278;25265;-69
2022/07/22 03:27:53;;;;;;;8.80;7.40;;;;;;;20.04;64.51;98873.85;219219;1277;25348;-69
2022/07/22 03:32:56;;;;;;;8.00;7.20;;;;;;;20.15;64.47;98870.08;219295;1277;22547;-69
2022/07/22 03:38:11;;;;;;;9.70;7.30;;;;;;;20.26;64.30;98870.11;219329;1278;22550;-69
2022/07/22 03:43:16;;;;;;;8.90;7.90;;;;;;;20.43;64.23;98866.02;219134;1278;22716;-70
2022/07/22 03:48:27;;;;;;;7.40;6.60;;;;;;;20.66;64.03;98863.39;219167;1278;25312;-69
2022/07/22 03:53:32;;;;;;;9.60;6.90;;;;;;;20.88;63.64;98859.39;219252;1276;22550;-70
2022/07/22 03:58:36;;;;;;;7.70;6.20;;;;;;;21.11;63.33;98860.13;219213;1278;22535;-69
2022/07/22 04:03:39;;;;;;;7.50;6.30;;;;;;;21.29;62.82;98858.71;219232;1278;22544;-70
2022/07/22 04:08:48;;;;;;;7.30;5.90;;;;;;;21.39;62.49;98854.31;219130;1278;22583;-69
2022/07/22 04:13:52;;;;;;;8.00;6.60;;;;;;;21.47;62.22;98846.59;219280;1278;25559;-70
2022/07/22 04:18:55;;;;;;;8.70;6.30;;;;;;;21.49;61.91;98839.30;219168;1277;22534;-69
2022/07/22 04:24:29;;;;;;;7.90;6.00;;;;;;;21.51;61.81;98838.34;219001;1277;26493;-70
2022/07/22 04:29:32;;;;;;;7.20;6.30;;;;;;;21.53;61.77;98848.77;218934;1277;25381;-70
2022/07/22 04:34:34;;;;;;;8.30;6.50;;;;;;;21.55;61.54;98851.68;219254;1279;25260;-70
2022/07/22 04:39:51;;;;;;;7.40;6.20;;;;;;;21.58;61.58;98851.50;219138;1278;25438;-70
2022/07/22 04:44:56;;;;;;;9.70;6.30;;;;;;;21.63;61.54;98855.19;219247;1278;25255;-70
2022/07/22 04:49:58;;;;;;;7.20;6.20;;;;;;;21.78;61.46;98846.36;219049;1277;25272;-69
2022/07/22 04:55:01;;;;;;;8.70;6.40;;;;;;;21.97;61.45;98851.28;219075;1278;22557;-70
2022/07/22 05:00:07;;;;;;;7.70;6.20;;;;;;;22.28;61.24;98843.31;219223;1278;22562;-69
2022/07/22 05:05:17;;;;;;;7.80;6.00;;;;;;;22.72;60.80;98845.26;219009;1278;25514;-70
2022/07/22 05:10:20;;;;;;;6.50;5.70;;;;;;;23.15;60.31;98841.02;219469;1277;22610;-71
2022/07/22 05:15:25;;;;;;;8.50;6.30;;;;;;;23.48;59.40;98838.29;219429;1277;22574;-72
2022/07/22 05:20:28;;;;;;;9.40;6.10;;;;;;;23.68;58.51;98840.54;219332;1277;22715;-70
2022/07/22 05:25:31;;;;;;;7.20;6.30;;;;;;;23.84;58.05;98841.95;219237;1278;22634;-71
2022/07/22 05:30:33;;;;;;;8.60;6.80;;;;;;;23.99;57.88;98833.04;219075;1278;22554;-71
2022/07/22 05:35:37;;;;;;;8.20;6.40;;;;;;;24.14;57.19;98838.88;219372;1277;22730;-71
2022/07/22 05:40:42;;;;;;;8.80;6.70;;;;;;;24.27;56.89;98845.64;219143;1277;25569;-69
2022/07/22 05:45:55;;;;;;;8.20;6.80;;;;;;;24.37;56.65;98862.21;219061;1277;22558;-70
2022/07/22 05:50:58;;;;;;;7.80;6.50;;;;;;;24.53;56.04;98861.08;219101;1277;25252;-69
2022/07/22 05:56:01;;;;;;;9.30;6.90;;;;;;;24.69;55.84;98861.68;219005;1278;23064;-69
2022/07/22 06:01:10;;;;;;;7.70;6.90;;;;;;;24.77;55.34;98868.08;218789;1277;25271;-69
2022/07/22 06:06:12;;;;;;;8.40;7.00;;;;;;;24.78;54.77;98877.40;218271;1277;22601;-70
2022/07/22 06:11:16;;;;;;;7.80;6.90;;;;;;;24.76;54.79;98882.16;218095;1278;24440;-70
2022/07/22 06:16:18;;;;;;;9.20;7.20;;;;;;;24.78;54.73;98870.20;218889;1276;23838;-70
2022/07/22 06:21:22;;;;;;;8.30;6.60;;;;;;;24.84;54.69;98865.77;218370;1276;22540;-67
2022/07/22 06:26:24;;;;;;;7.20;6.50;;;;;;;24.92;54.70;98862.45;218437;1277;24160;-68
2022/07/22 06:31:27;;;;;;;7.70;6.90;;;;;;;25.04;54.60;98863.39;218850;1276;25103;-70
2022/07/22 06:36:31;;;;;;;9.30;6.80;;;;;;;25.15;54.38;98858.89;218570;1276;22559;-70
2022/07/22 06:41:34;;;;;;;7.70;6.80;;;;;;;25.20;54.34;98866.05;218484;1277;22535;-69
2022/07/22 06:46:39;;;;;;;8.60;7.60;;;;;;;25.20;54.34;98882.88;218420;1276;22587;-70
2022/07/22 06:51:53;;;;;;;7.60;6.90;;;;;;;25.15;54.32;98886.62;218676;1277;24230;-68
2022/07/22 06:56:59;;;;;;;8.40;7.60;;;;;;;24.98;54.29;98886.44;218779;1277;22577;-71
2022/07/22 07:02:06;;;;;;;8.40;7.30;;;;;;;24.84;55.07;98879.94;218754;1276;24823;-69
2022/07/22 07:07:12;;;;;;;8.00;7.20;;;;;;;25.04;55.09;98872.86;218510;1277;22782;-69
2022/07/22 07:12:31;;;;;;;7.20;6.50;;;;;;;25.33;54.47;98880.91;218339;1278;25530;-70
2022/07/22 07:17:41;;;;;;;7.20;6.50;;;;;;;25.62;53.94;98884.09;218761;1277;24322;-70
2022/07/22 07:22:45;;;;;;;8.30;7.60;;;;;;;25.96;53.74;98883.63;219185;1276;22538;-69
2022/07/22 07:27:48;;;;;;;8.10;7.30;;;;;;;26.22;53.06;98893.48;218884;1277;24117;-71
2022/07/22 07:32:53;;;;;;;7.80;7.00;;;;;;;26.46;52.80;98886.51;219096;1277;24263;-71
2022/07/22 07:37:55;;;;;;;7.70;7.00;;;;;;;26.72;52.46;98881.17;218573;1277;22846;-69
2022/07/22 07:42:58;;;;;;;7.60;7.00;;;;;;;26.98;51.65;98882.86;218174;1276;22628;-69
2022/07/22 07:48:23;;;;;;;7.40;6.70;;;;;;;27.15;50.82;98885.79;218383;1278;25470;-68
2022/07/22 07:53:26;;;;;;;7.50;6.90;;;;;;;27.39;50.49;98884.77;218301;1277;24301;-69
2022/07/22 07:58:36;;;;;;;7.80;7.00;;;;;;;27.60;49.60;98885.17;218711;1276;26494;-69
2022/07/22 08:03:57;;;;;;;7.60;6.80;;;;;;;27.78;48.82;98885.06;218636;1276;22834;-69
2022/07/22 08:09:19;;;;;;;7.80;7.10;;;;;;;27.89;48.34;98887.85;218634;1276;24293;-70
2022/07/22 08:14:23;;;;;;;7.80;7.10;;;;;;;27.96;47.93;98885.68;218748;1276;25239;-70
2022/07/22 08:19:42;;;;;;;7.80;7.10;;;;;;;28.06;47.86;98888.06;218677;1278;25357;-70
2022/07/22 08:24:51;;;;;;;7.70;7.00;;;;;;;28.20;47.74;98889.00;219156;1276;22863;-72
2022/07/22 08:29:54;;;;;;;;;;;;;;;28.31;47.28;98888.44;218484;1276;22549;-68
2022/07/22 08:35:01;;;;;;;7.20;6.60;;;;;;;28.41;46.47;98890.09;218460;1276;23050;-69
2022/07/22 08:40:06;;;;;;;7.50;6.80;;;;;;;28.46;46.55;98895.00;218612;1276;22613;-69
2022/07/22 08:45:23;;;;;;;9.00;8.00;;;;;;;28.54;46.75;98895.02;219029;1276;22571;-70
2022/07/22 08:50:26;;;;;;;8.30;7.60;;;;;;;28.75;46.23;98901.45;218699;1276;24241;-69
2022/07/22 08:56:06;;;;;;;8.10;7.40;;;;;;;28.86;45.96;98902.15;218352;1276;25366;-69
2022/07/22 09:01:11;;;;;;;7.90;7.20;;;;;;;29.12;46.07;98902.98;218835;1276;25537;-69
2022/07/22 09:06:17;;;;;;;;;;;;;;;29.44;45.71;98902.95;218508;1277;22524;-69
2022/07/22 09:11:22;;;;;;;8.60;7.80;;;;;;;29.62;44.96;98903.28;219078;1276;22631;-70
2022/07/22 09:16:57;;;;;;;9.60;8.60;;;;;;;29.78;44.67;98901.97;218425;1276;23724;-70
2022/07/22 09:22:40;;;;;;;11.00;9.80;;;;;;;29.81;44.62;98897.41;218627;1276;22719;-70
2022/07/22 09:28:06;;;;;;;9.50;8.70;;;;;;;29.74;44.44;98895.70;218654;1276;22651;-69
2022/07/22 09:33:50;;;;;;;9.90;8.90;;;;;;;29.79;44.37;98897.13;217895;1283;22715;-69
2022/07/22 09:38:58;;;;;;;8.80;8.00;;;;;;;29.75;44.29;98897.73;218389;1277;22624;-69
2022/07/22 09:44:20;;;;;;;9.30;8.30;;;;;;;29.80;44.07;98900.74;218577;1277;22617;-68
2022/07/22 09:49:37;;;;;;;11.20;10.10;;;;;;;29.92;43.98;98899.33;218924;1277;25280;-69
2022/07/22 09:54:58;;;;;;;12.30;10.30;;;;;;;30.26;44.11;98893.71;218722;1277;25324;-69
2022/07/22 10:00:11;;;;;;;11.10;10.20;;;;;;;30.47;43.47;98898.28;218995;1278;25257;-69
2022/07/22 10:05:22;;;;;;;11.60;10.40;;;;;;;30.56;43.36;98888.25;218786;1276;22624;-70
2022/07/22 10:10:27;;;;;;;11.40;9.50;;;;;;;30.71;42.97;98882.70;218756;1276;22579;-69
2022/07/22 10:15:31;;;;;;;12.10;10.90;;;;;;;30.75;42.71;98888.10;219003;1276;22540;-69
2022/07/22 10:20:37;;;;;;;13.40;10.60;;;;;;;30.87;42.60;98886.77;218851;1276;23124;-69
2022/07/22 10:25:54;;;;;;;9.80;8.90;;;;;;;31.06;42.38;98879.71;218732;1276;25415;-70
2022/07/22 10:31:25;;;;;;;10.90;9.80;;;;;;;31.19;41.82;98875.91;218928;1276;24299;-69
2022/07/22 10:36:32;;;;;;;10.80;8.60;;;;;;;31.28;41.44;98875.89;218898;1276;24232;-68
2022/07/22 10:41:37;;;;;;;8.80;8.00;;;;;;;31.38;40.93;98878.11;219149;1276;22640;-69
2022/07/22 10:47:02;;;;;;;8.90;8.20;;;;;;;31.42;40.16;98871.46;218730;1276;23786;-70
2022/07/22 10:52:06;;;;;;;10.00;8.00;;;;;;;31.44;39.68;98867.02;218793;1276;22782;-70
2022/07/22 10:57:30;;;;;;;8.80;7.90;;;;;;;31.49;39.58;98866.98;219031;1276;25309;-71
2022/07/22 11:02:45;;;;;;;8.00;7.20;;;;;;;31.56;39.53;98859.03;218946;1276;24232;-70
2022/07/22 11:07:48;;;;;;;11.40;7.60;;;;;;;31.73;39.42;98858.66;219030;1276;22562;-69
2022/07/22 11:12:50;;;;;;;10.50;7.40;;;;;;;31.79;39.19;98852.30;219122;1276;23179;-72
2022/07/22 11:17:57;;;;;;;8.70;7.90;;;;;;;31.80;38.96;98847.82;218869;1276;22609;-71
2022/07/22 11:22:59;;;;;;;8.90;8.10;;;;;;;31.86;39.12;98842.23;218802;1276;25269;-72
2022/07/22 11:28:01;;;;;;;8.10;7.40;;;;;;;32.06;38.88;98839.30;220024;1276;27536;-71
2022/07/22 11:33:03;;;;;;;9.70;8.80;;;;;;;32.31;38.50;98839.57;220141;1276;22567;-70
2022/07/22 11:38:08;;;;;;;10.60;8.40;;;;;;;32.51;38.33;98833.05;218743;1278;22913;-70
2022/07/22 11:43:11;;;;;;;7.90;7.20;;;;;;;32.45;37.79;98832.33;218772;1276;22628;-72
2022/07/22 11:48:13;;;;;;;8.90;8.20;;;;;;;32.36;37.74;98828.68;218749;1276;22694;-72
2022/07/22 11:53:15;;;;;;;8.20;7.50;;;;;;;32.32;37.62;98824.74;218951;1276;24286;-74
2022/07/22 11:58:49;;;;;;;8.60;7.80;;;;;;;32.31;37.55;98820.35;220348;1276;22551;-74
2022/07/22 12:04:14;;;;;;;16.10;11.20;;;;;;;32.31;37.66;98813.30;220251;1276;22596;-71
2022/07/22 12:09:20;;;;;;;10.60;9.70;;;;;;;32.33;37.35;98808.31;220211;1276;22581;-70
2022/07/22 12:14:25;;;;;;;7.90;7.20;;;;;;;32.25;37.08;98805.11;220635;1276;22560;-71
2022/07/22 12:19:31;;;;;;;9.10;8.30;;;;;;;32.26;37.17;98801.55;220110;1276;23129;-70
2022/07/22 12:24:39;;;;;;;13.60;7.90;;;;;;;32.25;37.27;98793.00;218883;1276;24534;-70
2022/07/22 12:29:44;;;;;;;7.80;7.10;;;;;;;32.43;37.16;98787.16;219179;1276;22594;-71
2022/07/22 12:35:01;;;;;;;7.30;6.70;;;;;;;32.48;36.95;98787.81;220131;1276;22541;-71
2022/07/22 12:40:07;;;;;;;8.20;7.40;;;;;;;32.53;36.82;98778.89;218464;1276;25486;-72
2022/07/22 12:45:11;;;;;;;7.90;7.20;;;;;;;32.53;36.67;98775.42;218939;1276;25454;-71
2022/07/22 12:50:29;;;;;;;16.10;7.60;;;;;;;32.52;36.45;98769.26;218897;1276;22597;-73
2022/07/22 12:55:33;;;;;;;8.90;6.90;;;;;;;32.51;36.68;98763.89;219633;1276;385786;-70
2022/07/22 13:00:40;;;;;;;8.30;7.60;;;;;;;32.58;36.35;98756.02;218338;1276;23811;-69
2022/07/22 13:05:42;;;;;;;7.50;6.80;;;;;;;32.53;35.86;98751.70;218734;1276;25204;-74
2022/07/22 13:10:45;;;;;;;7.00;6.50;;;;;;;32.43;35.81;98749.30;218698;1276;25483;-71
2022/07/22 13:15:50;;;;;;;11.40;10.30;;;;;;;32.43;36.47;98742.42;218580;1276;25468;-70
2022/07/22 13:20:53;;;;;;;9.40;7.90;;;;;;;32.56;36.29;98738.80;218987;1276;23999;-70
2022/07/22 13:25:55;;;;;;;7.20;6.60;;;;;;;32.63;36.23;98733.38;218559;1276;22541;-70
2022/07/22 13:30:58;;;;;;;9.20;8.40;;;;;;;32.65;35.92;98731.05;218918;1276;25411;-71
2022/07/22 13:36:05;;;;;;;9.30;8.50;;;;;;;32.56;35.68;98730.16;218774;1276;22715;-70
2022/07/22 13:41:16;;;;;;;10.50;9.50;;;;;;;32.52;35.62;98726.15;218682;1276;22710;-71
2022/07/22 13:46:19;;;;;;;12.00;10.90;;;;;;;32.42;35.76;98727.94;218670;1276;25323;-68
2022/07/22 13:51:21;;;;;;;8.70;7.70;;;;;;;32.31;35.86;98722.16;218493;1276;22710;-69
2022/07/22 13:56:24;;;;;;;41.90;37.60;;;;;;;32.13;35.97;98719.29;218708;1276;22698;-70
2022/07/22 14:01:26;;;;;;;9.50;8.60;;;;;;;31.96;36.28;98713.93;218798;1276;23093;-70
2022/07/22 14:06:29;;;;;;;8.20;7.50;;;;;;;31.85;36.30;98709.92;219025;1276;25310;-70
2022/07/22 14:11:31;;;;;;;8.00;7.20;;;;;;;31.85;36.55;98704.23;219312;1276;22598;-71
2022/07/22 14:16:47;;;;;;;7.50;7.00;;;;;;;31.99;36.58;98703.27;218957;1277;22651;-69
2022/07/22 14:22:01;;;;;;;7.70;7.00;;;;;;;31.99;36.20;98699.54;218715;1277;23934;-69
2022/07/22 14:27:03;;;;;;;7.70;7.00;;;;;;;31.96;36.36;98696.94;218864;1277;24677;-70
2022/07/22 14:32:06;;;;;;;7.80;7.20;;;;;;;32.04;36.44;98695.77;218746;1278;23840;-70
2022/07/22 14:37:08;;;;;;;7.80;7.10;;;;;;;32.10;36.27;98689.98;218820;1276;24398;-70
2022/07/22 14:42:13;;;;;;;7.10;6.60;;;;;;;32.18;36.15;98684.88;218779;1278;25435;-70
2022/07/22 14:47:16;;;;;;;7.90;7.20;;;;;;;32.34;35.90;98683.40;218957;1276;25267;-70
2022/07/22 14:52:18;;;;;;;7.80;7.10;;;;;;;32.39;35.60;98685.09;218951;1278;25445;-70
2022/07/22 14:57:20;;;;;;;8.00;7.30;;;;;;;32.44;35.86;98682.29;218686;1278;25500;-71
2022/07/22 15:02:23;;;;;;;8.10;7.50;;;;;;;32.45;35.71;98678.77;218833;1276;23121;-71
2022/07/22 15:07:26;;;;;;;7.40;6.60;;;;;;;32.52;35.62;98679.11;219347;1276;22540;-69
2022/07/22 15:12:28;;;;;;;8.20;7.50;;;;;;;32.51;35.69;98681.75;219300;1276;25405;-70
2022/07/22 15:17:49;;;;;;;9.70;7.60;;;;;;;32.31;35.88;98684.29;219169;1277;25136;-69
2022/07/22 15:22:56;;;;;;;7.80;7.10;;;;;;;32.11;36.04;98681.89;219267;1276;26519;-72
2022/07/22 15:27:59;;;;;;;7.30;6.70;;;;;;;32.03;36.38;98676.46;220110;1276;25264;-69
2022/07/22 15:33:23;;;;;;;7.80;7.20;;;;;;;32.09;36.33;98671.17;219217;1276;25213;-72
2022/07/22 15:38:38;;;;;;;8.00;7.20;;;;;;;32.09;36.12;98669.98;219200;1276;22548;-70
2022/07/22 15:43:40;;;;;;;7.50;6.90;;;;;;;32.10;36.16;98667.59;219200;1277;26152;-71
2022/07/22 15:48:42;;;;;;;8.10;7.40;;;;;;;32.17;36.07;98665.52;218916;1276;25534;-71
2022/07/22 15:53:44;;;;;;;8.60;7.70;;;;;;;32.20;35.96;98665.34;219105;1276;22560;-70
2022/07/22 16:04:27;;;;;;;7.60;6.80;;;;;;;32.11;35.77;98659.32;218955;1276;23849;-70
2022/07/22 16:09:29;;;;;;;7.60;6.90;;;;;;;32.02;35.89;98658.53;219118;1276;22583;-70
2022/07/22 16:14:32;;;;;;;7.60;6.90;;;;;;;31.98;35.91;98650.98;219064;1276;25336;-70
2022/07/22 16:19:47;;;;;;;7.70;7.00;;;;;;;31.88;36.16;98657.66;219004;1276;22595;-70
2022/07/22 16:24:57;;;;;;;7.70;7.10;;;;;;;31.81;36.01;98656.55;219234;1276;22550;-70
2022/07/22 16:30:00;;;;;;;7.50;6.90;;;;;;;31.82;35.95;98652.41;219046;1276;25382;-70
2022/07/22 16:35:03;;;;;;;7.60;6.90;;;;;;;31.84;36.13;98650.85;219074;1276;22667;-71
2022/07/22 16:40:06;;;;;;;7.40;6.50;;;;;;;31.89;35.83;98651.60;219210;1276;24220;-71
2022/07/22 16:45:11;;;;;;;7.50;6.90;;;;;;;31.90;35.62;98654.27;219258;1276;24261;-69
2022/07/22 16:50:13;;;;;;;8.40;6.60;;;;;;;31.93;35.70;98653.96;219278;1276;22727;-69
2022/07/22 16:55:15;;;;;;;7.00;6.50;;;;;;;31.90;35.28;98653.54;219348;1276;22589;-70
2022/07/22 17:00:18;;;;;;;7.90;7.20;;;;;;;31.89;35.57;98652.86;219082;1276;22700;-74
2022/07/22 17:05:20;;;;;;;7.10;6.50;;;;;;;31.87;35.41;98654.91;220143;1276;22572;-69
2022/07/22 17:10:22;;;;;;;7.10;6.40;;;;;;;31.86;35.36;98654.30;220043;1276;22615;-71
2022/07/22 17:15:24;;;;;;;7.90;7.20;;;;;;;31.82;35.37;98650.85;220016;1276;22591;-70
2022/07/22 17:20:26;;;;;;;7.50;6.90;;;;;;;31.80;35.51;98652.72;219913;1276;24272;-70
2022/07/22 17:25:29;;;;;;;7.40;6.70;;;;;;;31.77;35.55;98658.48;220107;1276;22526;-71
2022/07/22 17:30:31;;;;;;;7.20;6.50;;;;;;;31.87;35.73;98656.64;220146;1276;26403;-70
2022/07/22 17:35:38;;;;;;;6.70;6.20;;;;;;;31.98;35.47;98657.79;219193;1276;22718;-71
2022/07/22 17:40:40;;;;;;;7.80;7.10;;;;;;;31.95;35.29;98655.56;219281;1276;26139;-70
2022/07/22 17:45:46;;;;;;;7.30;6.60;;;;;;;31.82;35.38;98661.60;218929;1276;22692;-70
2022/07/22 17:50:49;;;;;;;7.00;6.40;;;;;;;31.47;35.49;98659.61;218988;1277;25144;-70
2022/07/22 17:55:51;;;;;;;7.10;6.50;;;;;;;31.17;35.89;98657.39;219155;1276;26682;-71
2022/07/22 18:01:14;;;;;;;7.20;6.60;;;;;;;30.93;36.17;98666.69;219112;1276;24302;-71
2022/07/22 18:06:17;;;;;;;6.80;6.20;;;;;;;30.73;36.48;98666.18;219031;1276;22538;-72
2022/07/22 18:11:19;;;;;;;9.60;8.60;;;;;;;30.53;36.84;98661.08;220189;1276;24377;-71
2022/07/22 18:16:21;;;;;;;9.30;8.40;;;;;;;30.34;37.20;98659.20;220038;1277;22673;-71
2022/07/22 18:21:23;;;;;;;8.30;6.50;;;;;;;30.18;37.40;98658.10;220012;1276;24247;-71
2022/07/22 18:26:28;;;;;;;12.30;6.90;;;;;;;29.93;37.55;98662.13;220036;1276;24307;-72
2022/07/22 18:31:33;;;;;;;8.60;7.40;;;;;;;29.67;38.10;98658.90;220047;1276;22567;-70
2022/07/22 18:36:39;;;;;;;9.00;6.90;;;;;;;29.48;38.61;98657.88;219163;1276;25389;-70
2022/07/22 18:41:54;;;;;;;7.50;6.80;;;;;;;29.35;38.94;98662.98;219157;1276;25269;-70
2022/07/22 18:47:17;;;;;;;8.00;7.20;;;;;;;29.16;39.40;98665.99;219162;1276;22662;-72
2022/07/22 18:52:19;;;;;;;7.80;7.10;;;;;;;29.03;39.69;98668.54;219923;1277;24152;-70
2022/07/22 18:57:21;;;;;;;10.20;7.50;;;;;;;28.89;40.15;98668.12;219258;1277;24285;-71
2022/07/22 19:02:31;;;;;;;10.50;8.00;;;;;;;28.73;40.58;98669.83;219223;1276;22538;-70
2022/07/22 19:07:33;;;;;;;10.60;7.90;;;;;;;28.54;41.13;98666.56;219228;1276;24232;-70
2022/07/22 19:12:36;;;;;;;16.80;13.50;;;;;;;28.37;41.47;98672.69;219368;1276;24332;-71
2022/07/22 19:17:39;;;;;;;13.50;9.60;;;;;;;28.20;41.59;98677.58;219334;1276;22648;-70
2022/07/22 19:22:41;;;;;;;9.30;8.30;;;;;;;27.95;41.60;98680.48;219371;1277;22715;-70
2022/07/22 19:27:43;;;;;;;10.50;9.30;;;;;;;27.73;41.98;98687.20;220126;1277;24271;-70
2022/07/22 19:32:46;;;;;;;9.90;8.70;;;;;;;27.51;42.54;98689.27;220137;1277;25329;-69
2022/07/22 19:37:48;;;;;;;9.40;8.50;;;;;;;27.38;42.84;98687.01;219451;1276;23189;-70
2022/07/22 19:42:50;;;;;;;9.70;8.50;;;;;;;27.28;43.13;98686.66;220162;1276;25329;-70
2022/07/22 19:47:53;;;;;;;9.00;8.20;;;;;;;27.21;43.38;98682.88;219813;1277;22541;-71
2022/07/22 19:52:55;;;;;;;54.70;48.70;;;;;;;27.13;43.41;98685.73;220223;1276;22646;-70
2022/07/22 19:57:58;;;;;;;15.80;14.20;;;;;;;26.97;43.87;98685.20;220167;1276;25381;-70
2022/07/22 20:03:01;;;;;;;13.00;9.90;;;;;;;26.81;44.18;98688.73;220073;1276;23800;-70
2022/07/22 20:08:03;;;;;;;10.00;9.00;;;;;;;26.67;44.79;98686.03;219205;1276;22705;-73
2022/07/22 20:13:08;;;;;;;10.00;9.00;;;;;;;26.58;44.88;98685.75;220149;1276;24429;-69
2022/07/22 20:18:25;;;;;;;9.20;8.30;;;;;;;26.48;45.05;98684.38;220039;1276;22965;-69
2022/07/22 20:23:34;;;;;;;26.40;21.80;;;;;;;26.36;45.33;98684.49;220041;1276;25508;-70
2022/07/22 20:28:37;;;;;;;11.80;10.60;;;;;;;26.26;45.40;98686.80;218860;1276;22724;-70
2022/07/22 20:33:39;;;;;;;10.10;9.10;;;;;;;26.13;45.32;98690.98;219308;1276;24484;-70
2022/07/22 20:38:42;;;;;;;10.00;8.70;;;;;;;25.95;45.80;98693.51;220148;1276;25386;-70
2022/07/22 20:43:44;;;;;;;10.30;9.30;;;;;;;25.78;46.34;98693.34;220085;1276;25384;-69
2022/07/22 20:48:49;;;;;;;9.00;8.10;;;;;;;25.70;46.76;98695.79;219176;1278;25404;-70
2022/07/22 20:53:58;;;;;;;10.40;9.20;;;;;;;25.57;46.92;98693.73;219320;1276;25267;-69
2022/07/22 20:59:03;;;;;;;13.50;9.30;;;;;;;25.37;46.70;98691.85;219165;1278;25294;-70
2022/07/22 21:04:05;;;;;;;10.40;9.40;;;;;;;25.23;47.00;98692.12;219152;1276;24277;-70
2022/07/22 21:09:07;;;;;;;11.40;9.80;;;;;;;25.11;47.28;98691.61;220052;1276;26442;-72
2022/07/22 21:14:09;;;;;;;10.30;9.40;;;;;;;24.96;47.81;98695.73;220038;1276;24247;-69
2022/07/22 21:19:11;;;;;;;10.40;8.90;;;;;;;24.81;48.01;98693.96;219252;1277;22629;-73
2022/07/22 21:24:14;;;;;;;9.90;9.00;;;;;;;24.63;48.46;98695.06;219103;1277;25942;-69
2022/07/22 21:29:16;;;;;;;10.00;9.00;;;;;;;24.43;49.14;98695.26;219181;1277;26402;-70
2022/07/22 21:34:19;;;;;;;10.60;9.50;;;;;;;24.23;49.94;98699.92;219165;1276;22683;-70
2022/07/22 21:39:21;;;;;;;9.80;8.80;;;;;;;24.07;50.30;98698.11;219156;1276;24270;-70
2022/07/22 21:44:23;;;;;;;10.70;8.90;;;;;;;23.95;50.94;98700.36;219232;1278;22557;-72
2022/07/22 21:49:26;;;;;;;10.60;9.50;;;;;;;23.84;51.21;98703.16;219008;1277;22561;-69
2022/07/22 21:54:30;;;;;;;10.30;9.30;;;;;;;23.71;51.89;98700.93;219099;1277;26723;-70
2022/07/22 21:59:33;;;;;;;11.80;9.60;;;;;;;23.55;52.39;98702.30;219211;1277;22745;-69
2022/07/22 22:04:36;;;;;;;9.90;9.00;;;;;;;23.42;53.01;98701.01;218947;1278;22570;-70
2022/07/22 22:09:45;;;;;;;10.50;9.30;;;;;;;23.33;53.05;98698.35;219209;1277;22658;-69
2022/07/22 22:14:49;;;;;;;11.40;9.60;;;;;;;23.26;53.50;98698.58;219202;1277;24798;-70
2022/07/22 22:19:52;;;;;;;9.90;8.90;;;;;;;23.14;54.14;98700.42;219048;1277;25546;-70
2022/07/22 22:24:54;;;;;;;11.40;8.90;;;;;;;23.05;54.64;98699.52;218867;1278;22640;-70
2022/07/22 22:29:56;;;;;;;12.50;8.90;;;;;;;22.96;54.62;98699.96;219284;1280;24247;-69
2022/07/22 22:34:59;;;;;;;11.50;8.40;;;;;;;22.89;54.76;98699.34;219163;1277;25502;-69
2022/07/22 22:40:05;;;;;;;9.60;8.40;;;;;;;22.85;55.04;98699.60;219031;1277;24141;-70
2022/07/22 22:45:08;;;;;;;9.30;8.30;;;;;;;22.80;55.04;98698.68;218973;1278;26426;-70
2022/07/22 22:50:11;;;;;;;10.80;8.30;;;;;;;22.75;55.30;98696.98;219114;1277;23932;-70
2022/07/22 22:55:13;;;;;;;13.10;8.90;;;;;;;22.70;55.36;98704.59;219898;1277;22538;-69
2022/07/22 23:00:16;;;;;;;11.40;9.60;;;;;;;22.58;55.78;98703.19;218939;1277;25261;-70
2022/07/22 23:05:18;;;;;;;11.60;10.40;;;;;;;22.47;56.31;98703.35;219254;1280;22541;-72
2022/07/22 23:10:21;;;;;;;15.90;12.30;;;;;;;22.39;56.90;98699.66;219102;1280;23823;-69
2022/07/22 23:15:23;;;;;;;15.20;12.20;;;;;;;22.29;57.64;98695.05;219224;1280;22666;-71
2022/07/22 23:20:47;;;;;;;14.60;13.10;;;;;;;22.25;58.05;98688.60;219312;1277;22627;-70
2022/07/22 23:25:51;;;;;;;12.00;10.70;;;;;;;22.26;58.46;98687.13;219078;1280;22570;-70
2022/07/22 23:30:59;;;;;;;11.00;9.80;;;;;;;22.22;58.31;98685.13;219157;1277;22580;-70
2022/07/22 23:36:24;;;;;;;12.00;9.60;;;;;;;22.06;58.26;98685.30;219170;1280;24387;-70
2022/07/22 23:41:35;;;;;;;12.10;10.70;;;;;;;21.99;58.71;98686.67;218871;1278;22717;-70
2022/07/22 23:46:41;;;;;;;12.60;11.30;;;;;;;21.90;59.07;98697.84;218859;1277;24391;-70
2022/07/22 23:51:43;;;;;;;14.00;11.20;;;;;;;21.76;59.65;98705.88;219349;1277;22586;-69